Flight Track Log - Related Links

Times and Time Zones

All times are in EDT time to prevent confusion due to time zone crossing. See the CSN3952 flight status page for this flight to view local times or setup timezone preferences in your user account.

Time Position Orientation Groundspeed Altitude Reporting Facility
EDT Latitude Longitude Course Direction KTS MPH feet Rate Location/Type
Tue 11:28:00 AM 25.1477 110.1461 126° Southeast  Level Estimated
Tue 11:29:00 AM 25.0772 110.2530 126° Southeast  Level Estimated
Tue 11:30:00 AM 25.0067 110.3597 126° Southeast  Level Estimated
Tue 11:31:00 AM 24.9361 110.4663 126° Southeast  Level Estimated
Tue 11:32:00 AM 24.8654 110.5727 126° Southeast  Level Estimated
Tue 11:33:00 AM 24.7946 110.6791 126° Southeast  Level Estimated
Tue 11:34:00 AM 24.7237 110.7853 126° Southeast  Level Estimated
Tue 11:35:00 AM 24.6528 110.8914 126° Southeast  Level Estimated
Tue 11:36:00 AM 24.5818 110.9974 126° Southeast  Level Estimated
Tue 11:37:00 AM 24.5108 111.1032 126° Southeast  Level Estimated
Tue 11:38:00 AM 24.4396 111.2089 126° Southeast  Level Estimated
Tue 11:39:00 AM 24.3684 111.3146 126° Southeast  Level Estimated
Tue 11:40:00 AM 24.2971 111.4201 127° Southeast  Level Estimated
Tue 11:41:00 AM 24.2257 111.5254 127° Southeast  Level Estimated
Tue 11:42:00 AM 24.1543 111.6307 127° Southeast  Level Estimated
Tue 11:43:00 AM 24.0828 111.7358 127° Southeast  Level Estimated
Tue 11:44:00 AM 24.0112 111.8409 127° Southeast  Level Estimated
Tue 11:45:00 AM 23.9396 111.9458 127° Southeast  Level Estimated
Tue 11:46:00 AM 23.8678 112.0506 127° Southeast  Level Estimated
Tue 11:47:00 AM 23.7960 112.1552 127° Southeast  Level Estimated
Tue 11:48:00 AM 23.7242 112.2598 127° Southeast  Level Estimated
Tue 11:49:00 AM 23.6522 112.3642 127° Southeast  Level Estimated
Tue 11:50:00 AM 23.5802 112.4686 127° Southeast  Level Estimated
Tue 11:51:00 AM 23.5081 112.5728 127° Southeast  Level Estimated
Tue 11:52:00 AM 23.4360 112.6769 127° Southeast  Level Estimated
Tue 11:53:00 AM 23.3638 112.7809 127° Southeast  Level Estimated
Tue 11:54:00 AM 23.2915 112.8848 127° Southeast  Level Estimated
Tue 11:55:00 AM 23.2192 112.9885 127° Southeast  Level Estimated
Tue 11:56:00 AM 23.1467 113.0922 127° Southeast  Level Estimated
Tue 11:57:00 AM 23.0742 113.1957 127° Southeast  Level Estimated
Tue 11:58:00 AM 23.0017 113.2991 127° Southeast  Level Estimated
Tue 11:59:00 AM 22.9291 113.4024 127° Southeast  Level Estimated
Tue 12:00:00 PM 22.8564 113.5056 127° Southeast  Level Estimated
Tue 12:01:00 PM 22.7836 113.6087 127° Southeast  Level Estimated
Tue 12:02:00 PM 22.7108 113.7117 127° Southeast  Level Estimated
Tue 12:03:00 PM 22.6395 113.8124 127° Southeast  Level Estimated
Tue 12:04:00 PM 22.6395 113.8124 25° Northeast  Level Estimated
Tue 12:05:00 PM 22.6395 113.8124 25° Northeast  Level Estimated
Tue 12:06:00 PM 22.6395 113.8124 25° Northeast  Level Estimated
Tue 12:07:00 PM 22.6395 113.8124 25° Northeast  Level Estimated
Tue 12:08:00 PM 22.6395 113.8124 25° Northeast  Level Estimated
Tue 12:09:00 PM 22.6395 113.8124 25° Northeast  Level Estimated
Tue 12:10:00 PM 22.6395 113.8124 25° Northeast  Level Estimated
Tue 12:11:00 PM 22.6395 113.8124 25° Northeast  Level Estimated
Tue 12:12:00 PM 22.6395 113.8124 25° Northeast  Level Estimated
Tue 12:13:00 PM 22.6395 113.8124 25° Northeast  Level Estimated
Tue 12:14:00 PM 22.6395 113.8124 25° Northeast  Level Estimated
Tue 12:15:00 PM 22.6395 113.8124 25° Northeast  Level Estimated
Tue 12:16:00 PM 22.6395 113.8124 25° Northeast  Level Estimated
Tue 12:17:00 PM 22.6395 113.8124 25° Northeast  Level Estimated
Tue 12:18:00 PM 22.6395 113.8124 25° Northeast  Level Estimated
Tue 12:19:00 PM 22.6395 113.8124 25° Northeast  Level Estimated
Tue 12:20:00 PM 22.6395 113.8124 25° Northeast  Level Estimated
Tue 12:21:00 PM 22.6395 113.8124 25° Northeast  Level Estimated

Login

Don't have an account? Register now (free) for customized features, flight alerts, and more!